AirNav   Everest Fuels
 
 617 users online  

NC18 Rat Landing Seaplane Base
Ahoskie, North Carolina, USA

GOING TO AHOSKIE?


FAA INFORMATION EFFECTIVE 10 SEPTEMBER 2020

Location

FAA Identifier: NC18
Lat/Long: 36-23-22.0000N 076-54-41.0000W
36-23.366667N 076-54.683333W
36.3894444,-76.9113889
(estimated)
Elevation: 14 ft. / 4 m (estimated)
From city: 7 miles NE of AHOSKIE, NC
Time zone: UTC -4 (UTC -5 during Standard Time)
Zip code: 27986

Seaplane Base Operations

Seaplane Base use: Private use. Permission required prior to landing
Activation date: 12/2010
Control tower: no
ARTCC: WASHINGTON CENTER
FSS: RALEIGH FLIGHT SERVICE STATION
Attendance: UNATNDD
Segmented circle: no

Seaplane Base Communications

WX AWOS-3 at ASJ (14 nm SW): 119.075 (252-345-2967)
WX AWOS-3PT at FKN (19 nm N): 124.675 (757-562-8765)

Nearby radio navigation aids

VOR radial/distance  VOR name  Freq  Var
CVIr306/2.2COFIELD VORTAC114.6009W
FKNr175/20.1FRANKLIN VORTAC110.6009W
ECGr290/36.4ELIZABETH CITY VOR/DME112.5007W

 
NDB name  Hdg/Dist  Freq  Var  ID
WOODVILLE294/30.625410WLLW .-.. .-.. .--
WAKEFIELD184/35.927411WAKQ .- -.- --.-

Seaplane Base Services

Fuel available: 100LL

Runway Information

Runway 12W/30W

Dimensions: 7300 x 500 ft. / 2225 x 152 m
Surface: water
RUNWAY 12W  RUNWAY 30W
Traffic pattern: leftleft

Seaplane Base Ownership and Management from official FAA records

Ownership: Privately-owned
Owner: HENRY JOYNER
327B TUSCARORA RD
WINTON, NC 27986
Phone 252-395-0822
Manager: HENRY JOYNER
327B TUSCARORA RD
WINTON, NC 27986
Phone 252-395-0822

Seaplane Base Operational Statistics

Aircraft based on the field: 1
Single engine airplanes: 1
    
Aircraft operations: avg 25/month *
98% transient general aviation
2% military
* for 12-month period ending 25 January 2009

Additional Remarks

FOR CD CTC WASHINGTON ARTCC AT 703-771-3587.

Instrument Procedures

There are no published instrument procedures at NC18.

Some nearby airports with instrument procedures:

KASJ - Tri-County Airport (14 nm SW)
KFKN - Franklin Regional Airport (19 nm N)
KSFQ - Suffolk Executive Airport (23 nm NE)
KEDE - Northeastern Regional Airport (27 nm SE)
KPVG - Hampton Roads Executive Airport (32 nm NE)
 
Loc | Ops | Rwys | IFR | FBO | Links
Com | Nav | Svcs | Stats | Notes
Aerial photo
No photo
 
Sectional chart

 
Airport distance calculator
Flying to Rat Landing Seaplane Base? Find the distance to fly.

From to NC18

Sunrise and sunset
Times for 23-Sep-2020
 Local
(UTC-4)
 Zulu
(UTC)
Morning civil twilight06:3210:32
Sunrise06:5810:58
Sunset19:0123:01
Evening civil twilight19:2723:27

Current date and time
Zulu (UTC)  23-Sep-2020 10:58:31
Local (UTC-4)  23-Sep-2020 06:58:31
 
METAR
KASJ 
14nm SW 
231055Z AUTO 00000KT 10SM CLR 09/09 A3006 RMK AO2 T00880088
KFKN 
19nm N 
231035Z AUTO 00000KT 10SM CLR 09/09 A3004 RMK AO2 T00870085
KSFQ 
23nm NE 
231035Z AUTO 00000KT 10SM CLR 10/10 A3004 RMK AO2 T01040095
TAF
KECG 
36nm E 
230520Z 2306/2406 26005KT P6SM SKC FM231400 29008KT P6SM SKC FM232200 23004KT P6SM SKC
KNGU 
44nm NE 
2307/2407 29006KT 9999 FEW100 BKN300 QNH2996INS BECMG 2320/2322 25008KT 9999 FEW300 QNH2992INS T14/2309Z T24/2319Z FN00223
NOTAMs
Click for the latest NOTAMs
NOTAMs are issued by the DoD/FAA and will open in a separate window not controlled by AirNav.

 

 
 

Would you like to see your business listed on this page?

 If your business provides an interesting product or service to pilots, flight crews, aircraft, or users of the Rat Landing Seaplane Base, you should consider listing it here.  To start the listing process, click on the button below
 
Add a business
 

Other Pages about Rat Landing Seaplane Base

Update a link
 
Copyright © AirNav, LLC. All rights reserved. Privacy Policy  Contact